sensor_id;sensor_type;location;lat;lon;timestamp;P1;durP1;ratioP1;P2;durP2;ratioP2
16522;SDS011;19889;52.546;13.348;2024-02-26T00:00:58;15.53;;;9.27;;
16522;SDS011;19889;52.546;13.348;2024-02-26T00:03:26;16.30;;;9.23;;
16522;SDS011;19889;52.546;13.348;2024-02-26T00:05:54;14.03;;;7.37;;
16522;SDS011;19889;52.546;13.348;2024-02-26T00:08:21;13.27;;;9.47;;
16522;SDS011;19889;52.546;13.348;2024-02-26T00:10:48;21.63;;;11.13;;
16522;SDS011;19889;52.546;13.348;2024-02-26T00:13:16;16.20;;;9.03;;
16522;SDS011;19889;52.546;13.348;2024-02-26T00:15:43;13.10;;;9.40;;
16522;SDS011;19889;52.546;13.348;2024-02-26T00:18:10;17.23;;;9.93;;
16522;SDS011;19889;52.546;13.348;2024-02-26T00:20:38;19.37;;;10.83;;
16522;SDS011;19889;52.546;13.348;2024-02-26T00:23:08;17.93;;;10.70;;
16522;SDS011;19889;52.546;13.348;2024-02-26T00:25:35;17.63;;;10.80;;
16522;SDS011;19889;52.546;13.348;2024-02-26T00:28:03;14.57;;;10.00;;
16522;SDS011;19889;52.546;13.348;2024-02-26T00:30:30;13.43;;;9.77;;
16522;SDS011;19889;52.546;13.348;2024-02-26T00:32:58;15.03;;;9.97;;
16522;SDS011;19889;52.546;13.348;2024-02-26T00:35:25;14.10;;;9.37;;
16522;SDS011;19889;52.546;13.348;2024-02-26T00:37:53;17.77;;;10.87;;
16522;SDS011;19889;52.546;13.348;2024-02-26T00:40:20;16.67;;;9.97;;
16522;SDS011;19889;52.546;13.348;2024-02-26T00:42:48;12.80;;;9.17;;
16522;SDS011;19889;52.546;13.348;2024-02-26T00:45:15;15.77;;;9.90;;
16522;SDS011;19889;52.546;13.348;2024-02-26T00:47:42;17.03;;;10.10;;
16522;SDS011;19889;52.546;13.348;2024-02-26T00:50:10;17.70;;;9.47;;
16522;SDS011;19889;52.546;13.348;2024-02-26T00:52:38;14.03;;;8.93;;
16522;SDS011;19889;52.546;13.348;2024-02-26T00:55:07;14.57;;;9.40;;
16522;SDS011;19889;52.546;13.348;2024-02-26T00:57:34;14.53;;;9.33;;
16522;SDS011;19889;52.546;13.348;2024-02-26T01:00:02;14.80;;;9.00;;
16522;SDS011;19889;52.546;13.348;2024-02-26T01:02:29;13.60;;;9.33;;
16522;SDS011;19889;52.546;13.348;2024-02-26T01:04:56;19.53;;;10.87;;
16522;SDS011;19889;52.546;13.348;2024-02-26T01:07:23;14.10;;;9.47;;
16522;SDS011;19889;52.546;13.348;2024-02-26T01:09:50;16.37;;;10.13;;
16522;SDS011;19889;52.546;13.348;2024-02-26T01:12:19;17.03;;;10.23;;
16522;SDS011;19889;52.546;13.348;2024-02-26T01:14:46;16.00;;;9.63;;
16522;SDS011;19889;52.546;13.348;2024-02-26T01:17:13;18.77;;;10.07;;
16522;SDS011;19889;52.546;13.348;2024-02-26T01:19:40;15.20;;;9.73;;
16522;SDS011;19889;52.546;13.348;2024-02-26T01:22:08;14.07;;;8.80;;
16522;SDS011;19889;52.546;13.348;2024-02-26T01:24:35;12.57;;;8.33;;
16522;SDS011;19889;52.546;13.348;2024-02-26T01:27:02;12.97;;;9.30;;
16522;SDS011;19889;52.546;13.348;2024-02-26T01:29:31;12.47;;;8.47;;
16522;SDS011;19889;52.546;13.348;2024-02-26T01:31:58;19.97;;;10.30;;
16522;SDS011;19889;52.546;13.348;2024-02-26T01:34:25;13.17;;;8.27;;
16522;SDS011;19889;52.546;13.348;2024-02-26T01:36:52;15.63;;;9.30;;
16522;SDS011;19889;52.546;13.348;2024-02-26T01:39:21;13.73;;;8.47;;
16522;SDS011;19889;52.546;13.348;2024-02-26T01:41:48;17.07;;;9.47;;
16522;SDS011;19889;52.546;13.348;2024-02-26T01:44:15;17.00;;;10.17;;
16522;SDS011;19889;52.546;13.348;2024-02-26T01:46:44;13.40;;;8.73;;
16522;SDS011;19889;52.546;13.348;2024-02-26T01:49:11;16.17;;;9.50;;
16522;SDS011;19889;52.546;13.348;2024-02-26T01:51:39;12.60;;;8.30;;
16522;SDS011;19889;52.546;13.348;2024-02-26T01:54:09;14.43;;;8.40;;
16522;SDS011;19889;52.546;13.348;2024-02-26T01:56:37;17.47;;;10.03;;
16522;SDS011;19889;52.546;13.348;2024-02-26T01:59:06;14.70;;;9.40;;
16522;SDS011;19889;52.546;13.348;2024-02-26T02:01:34;16.40;;;9.47;;
16522;SDS011;19889;52.546;13.348;2024-02-26T02:04:04;13.70;;;9.03;;
16522;SDS011;19889;52.546;13.348;2024-02-26T02:06:31;11.60;;;8.37;;
16522;SDS011;19889;52.546;13.348;2024-02-26T02:08:58;13.90;;;8.13;;
16522;SDS011;19889;52.546;13.348;2024-02-26T02:11:31;14.73;;;9.00;;
16522;SDS011;19889;52.546;13.348;2024-02-26T02:13:59;15.10;;;9.10;;
16522;SDS011;19889;52.546;13.348;2024-02-26T02:16:26;13.10;;;8.37;;
16522;SDS011;19889;52.546;13.348;2024-02-26T02:18:53;14.87;;;8.77;;
16522;SDS011;19889;52.546;13.348;2024-02-26T02:21:22;12.10;;;8.17;;
16522;SDS011;19889;52.546;13.348;2024-02-26T02:23:49;13.43;;;8.50;;
16522;SDS011;19889;52.546;13.348;2024-02-26T02:26:16;12.10;;;8.37;;
16522;SDS011;19889;52.546;13.348;2024-02-26T02:28:45;17.63;;;9.50;;
16522;SDS011;19889;52.546;13.348;2024-02-26T02:31:13;13.43;;;8.33;;
16522;SDS011;19889;52.546;13.348;2024-02-26T02:33:41;12.37;;;8.17;;
16522;SDS011;19889;52.546;13.348;2024-02-26T02:36:08;13.20;;;8.03;;
16522;SDS011;19889;52.546;13.348;2024-02-26T02:38:38;11.67;;;7.23;;
16522;SDS011;19889;52.546;13.348;2024-02-26T02:41:14;11.13;;;7.57;;
16522;SDS011;19889;52.546;13.348;2024-02-26T02:43:41;10.03;;;7.13;;
16522;SDS011;19889;52.546;13.348;2024-02-26T02:46:08;12.57;;;7.30;;
16522;SDS011;19889;52.546;13.348;2024-02-26T02:48:36;15.57;;;8.53;;
16522;SDS011;19889;52.546;13.348;2024-02-26T02:51:04;12.93;;;7.17;;
16522;SDS011;19889;52.546;13.348;2024-02-26T02:53:31;11.00;;;6.70;;
16522;SDS011;19889;52.546;13.348;2024-02-26T02:55:59;10.93;;;6.93;;
16522;SDS011;19889;52.546;13.348;2024-02-26T02:58:26;7.97;;;6.47;;
16522;SDS011;19889;52.546;13.348;2024-02-26T03:00:54;7.30;;;6.47;;
16522;SDS011;19889;52.546;13.348;2024-02-26T03:03:21;8.83;;;6.70;;
16522;SDS011;19889;52.546;13.348;2024-02-26T03:05:49;9.80;;;6.53;;
16522;SDS011;19889;52.546;13.348;2024-02-26T03:08:16;11.63;;;7.27;;
16522;SDS011;19889;52.546;13.348;2024-02-26T03:10:44;10.03;;;6.50;;
16522;SDS011;19889;52.546;13.348;2024-02-26T03:13:13;10.73;;;5.83;;
16522;SDS011;19889;52.546;13.348;2024-02-26T03:15:40;12.30;;;6.63;;
16522;SDS011;19889;52.546;13.348;2024-02-26T03:18:07;11.93;;;6.43;;
16522;SDS011;19889;52.546;13.348;2024-02-26T03:20:35;13.60;;;7.43;;
16522;SDS011;19889;52.546;13.348;2024-02-26T03:23:02;11.90;;;6.83;;
16522;SDS011;19889;52.546;13.348;2024-02-26T03:25:29;11.73;;;6.77;;
16522;SDS011;19889;52.546;13.348;2024-02-26T03:27:56;11.17;;;6.80;;
16522;SDS011;19889;52.546;13.348;2024-02-26T03:30:25;11.10;;;6.80;;
16522;SDS011;19889;52.546;13.348;2024-02-26T03:32:52;11.17;;;6.60;;
16522;SDS011;19889;52.546;13.348;2024-02-26T03:35:19;9.63;;;6.83;;
16522;SDS011;19889;52.546;13.348;2024-02-26T03:37:46;11.43;;;6.33;;
16522;SDS011;19889;52.546;13.348;2024-02-26T03:40:15;11.63;;;6.77;;
16522;SDS011;19889;52.546;13.348;2024-02-26T03:42:44;10.67;;;6.40;;
16522;SDS011;19889;52.546;13.348;2024-02-26T03:45:11;10.87;;;6.47;;
16522;SDS011;19889;52.546;13.348;2024-02-26T03:47:40;11.50;;;6.47;;
16522;SDS011;19889;52.546;13.348;2024-02-26T03:50:07;12.93;;;6.50;;
16522;SDS011;19889;52.546;13.348;2024-02-26T03:52:35;12.17;;;6.43;;
16522;SDS011;19889;52.546;13.348;2024-02-26T03:55:02;8.90;;;5.37;;
16522;SDS011;19889;52.546;13.348;2024-02-26T03:57:29;10.60;;;6.03;;
16522;SDS011;19889;52.546;13.348;2024-02-26T03:59:56;8.10;;;5.20;;
16522;SDS011;19889;52.546;13.348;2024-02-26T04:02:24;12.10;;;6.87;;
16522;SDS011;19889;52.546;13.348;2024-02-26T04:04:53;9.73;;;5.60;;
16522;SDS011;19889;52.546;13.348;2024-02-26T04:07:20;8.17;;;5.97;;
16522;SDS011;19889;52.546;13.348;2024-02-26T04:09:47;9.17;;;5.67;;
16522;SDS011;19889;52.546;13.348;2024-02-26T04:12:15;9.13;;;5.57;;
16522;SDS011;19889;52.546;13.348;2024-02-26T04:14:42;11.03;;;6.10;;
16522;SDS011;19889;52.546;13.348;2024-02-26T04:17:09;9.10;;;5.10;;
16522;SDS011;19889;52.546;13.348;2024-02-26T04:19:37;9.77;;;5.73;;
16522;SDS011;19889;52.546;13.348;2024-02-26T04:22:05;11.67;;;5.27;;
16522;SDS011;19889;52.546;13.348;2024-02-26T04:24:33;11.37;;;5.77;;
16522;SDS011;19889;52.546;13.348;2024-02-26T04:27:00;9.00;;;5.47;;
16522;SDS011;19889;52.546;13.348;2024-02-26T04:29:27;7.93;;;4.93;;
16522;SDS011;19889;52.546;13.348;2024-02-26T04:31:54;9.30;;;5.87;;
16522;SDS011;19889;52.546;13.348;2024-02-26T04:34:21;9.20;;;5.50;;
16522;SDS011;19889;52.546;13.348;2024-02-26T04:36:48;9.70;;;5.70;;
16522;SDS011;19889;52.546;13.348;2024-02-26T04:39:17;9.10;;;5.30;;
16522;SDS011;19889;52.546;13.348;2024-02-26T04:41:44;9.90;;;6.00;;
16522;SDS011;19889;52.546;13.348;2024-02-26T04:44:12;9.13;;;5.40;;
16522;SDS011;19889;52.546;13.348;2024-02-26T04:46:39;8.20;;;5.37;;
16522;SDS011;19889;52.546;13.348;2024-02-26T04:49:06;9.67;;;5.40;;
16522;SDS011;19889;52.546;13.348;2024-02-26T04:51:33;9.97;;;5.60;;
16522;SDS011;19889;52.546;13.348;2024-02-26T04:54:00;11.53;;;6.47;;
16522;SDS011;19889;52.546;13.348;2024-02-26T04:56:29;8.47;;;5.43;;
16522;SDS011;19889;52.546;13.348;2024-02-26T04:58:56;9.20;;;5.60;;
16522;SDS011;19889;52.546;13.348;2024-02-26T05:01:23;10.83;;;5.80;;
16522;SDS011;19889;52.546;13.348;2024-02-26T05:03:50;9.80;;;6.13;;
16522;SDS011;19889;52.546;13.348;2024-02-26T05:06:17;8.13;;;5.20;;
16522;SDS011;19889;52.546;13.348;2024-02-26T05:08:44;12.83;;;7.23;;
16522;SDS011;19889;52.546;13.348;2024-02-26T05:11:12;7.87;;;5.20;;
16522;SDS011;19889;52.546;13.348;2024-02-26T05:13:40;9.97;;;5.93;;
16522;SDS011;19889;52.546;13.348;2024-02-26T05:16:08;9.17;;;5.63;;
16522;SDS011;19889;52.546;13.348;2024-02-26T05:18:35;8.43;;;5.57;;
16522;SDS011;19889;52.546;13.348;2024-02-26T05:21:02;9.37;;;5.50;;
16522;SDS011;19889;52.546;13.348;2024-02-26T05:23:29;9.27;;;5.60;;
16522;SDS011;19889;52.546;13.348;2024-02-26T05:25:56;7.10;;;4.93;;
16522;SDS011;19889;52.546;13.348;2024-02-26T05:28:24;9.43;;;5.60;;
16522;SDS011;19889;52.546;13.348;2024-02-26T05:30:52;11.63;;;6.13;;
16522;SDS011;19889;52.546;13.348;2024-02-26T05:33:19;12.43;;;6.50;;
16522;SDS011;19889;52.546;13.348;2024-02-26T05:35:47;11.73;;;6.57;;
16522;SDS011;19889;52.546;13.348;2024-02-26T05:38:14;11.60;;;7.30;;
16522;SDS011;19889;52.546;13.348;2024-02-26T05:40:41;10.90;;;7.00;;
16522;SDS011;19889;52.546;13.348;2024-02-26T05:43:08;11.73;;;6.33;;
16522;SDS011;19889;52.546;13.348;2024-02-26T05:45:35;11.93;;;6.03;;
16522;SDS011;19889;52.546;13.348;2024-02-26T05:48:04;11.30;;;6.37;;
16522;SDS011;19889;52.546;13.348;2024-02-26T05:50:32;8.97;;;5.13;;
16522;SDS011;19889;52.546;13.348;2024-02-26T05:52:59;13.00;;;7.67;;
16522;SDS011;19889;52.546;13.348;2024-02-26T05:55:26;10.20;;;6.17;;
16522;SDS011;19889;52.546;13.348;2024-02-26T05:57:53;10.03;;;6.40;;
16522;SDS011;19889;52.546;13.348;2024-02-26T06:00:20;8.77;;;5.50;;
16522;SDS011;19889;52.546;13.348;2024-02-26T06:02:48;12.53;;;7.03;;
16522;SDS011;19889;52.546;13.348;2024-02-26T06:05:16;10.73;;;6.30;;
16522;SDS011;19889;52.546;13.348;2024-02-26T06:07:43;12.70;;;6.80;;
16522;SDS011;19889;52.546;13.348;2024-02-26T06:10:11;10.43;;;6.37;;
16522;SDS011;19889;52.546;13.348;2024-02-26T06:12:39;11.23;;;6.70;;
16522;SDS011;19889;52.546;13.348;2024-02-26T06:15:06;12.53;;;6.50;;
16522;SDS011;19889;52.546;13.348;2024-02-26T06:17:34;11.00;;;6.80;;
16522;SDS011;19889;52.546;13.348;2024-02-26T06:20:01;11.97;;;6.67;;
16522;SDS011;19889;52.546;13.348;2024-02-26T06:22:31;11.13;;;7.03;;
16522;SDS011;19889;52.546;13.348;2024-02-26T06:24:58;10.73;;;6.50;;
16522;SDS011;19889;52.546;13.348;2024-02-26T06:27:25;11.37;;;6.97;;
16522;SDS011;19889;52.546;13.348;2024-02-26T06:29:53;14.67;;;7.67;;
16522;SDS011;19889;52.546;13.348;2024-02-26T06:32:20;11.13;;;6.77;;
16522;SDS011;19889;52.546;13.348;2024-02-26T06:34:48;11.13;;;6.70;;
16522;SDS011;19889;52.546;13.348;2024-02-26T06:37:15;14.20;;;8.17;;
16522;SDS011;19889;52.546;13.348;2024-02-26T06:39:44;17.07;;;9.03;;
16522;SDS011;19889;52.546;13.348;2024-02-26T06:42:11;15.70;;;8.63;;
16522;SDS011;19889;52.546;13.348;2024-02-26T06:44:38;15.47;;;8.27;;
16522;SDS011;19889;52.546;13.348;2024-02-26T06:47:05;13.60;;;8.80;;
16522;SDS011;19889;52.546;13.348;2024-02-26T06:49:33;14.20;;;7.97;;
16522;SDS011;19889;52.546;13.348;2024-02-26T06:52:00;14.27;;;8.43;;
16522;SDS011;19889;52.546;13.348;2024-02-26T06:54:27;19.73;;;11.30;;
16522;SDS011;19889;52.546;13.348;2024-02-26T06:56:56;15.97;;;9.03;;
16522;SDS011;19889;52.546;13.348;2024-02-26T06:59:24;11.63;;;7.30;;
16522;SDS011;19889;52.546;13.348;2024-02-26T07:01:51;14.67;;;8.33;;
16522;SDS011;19889;52.546;13.348;2024-02-26T07:04:20;9.87;;;6.87;;
16522;SDS011;19889;52.546;13.348;2024-02-26T07:06:47;19.80;;;10.63;;
16522;SDS011;19889;52.546;13.348;2024-02-26T07:09:14;14.23;;;8.77;;
16522;SDS011;19889;52.546;13.348;2024-02-26T07:11:42;15.90;;;8.73;;
16522;SDS011;19889;52.546;13.348;2024-02-26T07:14:11;14.03;;;7.77;;
16522;SDS011;19889;52.546;13.348;2024-02-26T07:16:39;12.43;;;8.20;;
16522;SDS011;19889;52.546;13.348;2024-02-26T07:19:06;14.67;;;9.10;;
16522;SDS011;19889;52.546;13.348;2024-02-26T07:21:33;15.23;;;9.23;;
16522;SDS011;19889;52.546;13.348;2024-02-26T07:24:01;15.90;;;9.70;;
16522;SDS011;19889;52.546;13.348;2024-02-26T07:26:28;16.47;;;9.50;;
16522;SDS011;19889;52.546;13.348;2024-02-26T07:28:56;13.13;;;9.10;;
16522;SDS011;19889;52.546;13.348;2024-02-26T07:31:24;13.87;;;8.77;;
16522;SDS011;19889;52.546;13.348;2024-02-26T07:33:52;13.70;;;9.20;;
16522;SDS011;19889;52.546;13.348;2024-02-26T07:36:19;15.60;;;9.60;;
16522;SDS011;19889;52.546;13.348;2024-02-26T07:38:46;13.10;;;9.63;;
16522;SDS011;19889;52.546;13.348;2024-02-26T07:41:14;13.10;;;8.80;;
16522;SDS011;19889;52.546;13.348;2024-02-26T07:43:41;15.43;;;9.60;;
16522;SDS011;19889;52.546;13.348;2024-02-26T07:46:10;13.30;;;8.30;;
16522;SDS011;19889;52.546;13.348;2024-02-26T07:48:39;14.50;;;9.17;;
16522;SDS011;19889;52.546;13.348;2024-02-26T07:51:07;14.57;;;9.23;;
16522;SDS011;19889;52.546;13.348;2024-02-26T07:53:34;14.00;;;9.20;;
16522;SDS011;19889;52.546;13.348;2024-02-26T07:59:49;17.43;;;10.37;;
16522;SDS011;19889;52.546;13.348;2024-02-26T08:02:17;12.47;;;9.23;;
16522;SDS011;19889;52.546;13.348;2024-02-26T08:04:45;12.70;;;9.77;;
16522;SDS011;19889;52.546;13.348;2024-02-26T08:07:13;16.20;;;10.60;;
16522;SDS011;19889;52.546;13.348;2024-02-26T08:09:40;15.87;;;10.90;;
16522;SDS011;19889;52.546;13.348;2024-02-26T08:12:07;12.10;;;8.90;;
16522;SDS011;19889;52.546;13.348;2024-02-26T08:14:35;14.60;;;9.17;;
16522;SDS011;19889;52.546;13.348;2024-02-26T08:17:02;14.33;;;10.67;;
16522;SDS011;19889;52.546;13.348;2024-02-26T08:19:30;14.57;;;9.43;;
16522;SDS011;19889;52.546;13.348;2024-02-26T08:21:58;14.20;;;10.00;;
16522;SDS011;19889;52.546;13.348;2024-02-26T08:24:25;14.10;;;9.70;;
16522;SDS011;19889;52.546;13.348;2024-02-26T08:26:53;12.97;;;9.87;;
16522;SDS011;19889;52.546;13.348;2024-02-26T08:29:20;15.13;;;10.77;;
16522;SDS011;19889;52.546;13.348;2024-02-26T08:31:48;15.90;;;11.87;;
16522;SDS011;19889;52.546;13.348;2024-02-26T08:34:15;14.30;;;10.17;;
16522;SDS011;19889;52.546;13.348;2024-02-26T08:36:42;10.83;;;9.13;;
16522;SDS011;19889;52.546;13.348;2024-02-26T08:39:11;10.57;;;8.70;;
16522;SDS011;19889;52.546;13.348;2024-02-26T08:41:39;12.90;;;10.27;;
16522;SDS011;19889;52.546;13.348;2024-02-26T08:44:06;11.50;;;9.10;;
16522;SDS011;19889;52.546;13.348;2024-02-26T08:46:33;17.97;;;12.33;;
16522;SDS011;19889;52.546;13.348;2024-02-26T08:49:01;11.97;;;9.27;;
16522;SDS011;19889;52.546;13.348;2024-02-26T08:51:28;10.97;;;9.57;;
16522;SDS011;19889;52.546;13.348;2024-02-26T08:53:55;12.40;;;9.30;;
16522;SDS011;19889;52.546;13.348;2024-02-26T08:56:24;9.70;;;8.70;;
16522;SDS011;19889;52.546;13.348;2024-02-26T08:58:52;11.23;;;9.87;;
16522;SDS011;19889;52.546;13.348;2024-02-26T09:01:22;11.27;;;8.80;;
16522;SDS011;19889;52.546;13.348;2024-02-26T09:03:49;11.87;;;9.63;;
16522;SDS011;19889;52.546;13.348;2024-02-26T09:06:17;13.00;;;8.80;;
16522;SDS011;19889;52.546;13.348;2024-02-26T09:08:44;13.47;;;10.47;;
16522;SDS011;19889;52.546;13.348;2024-02-26T09:11:11;10.67;;;8.77;;
16522;SDS011;19889;52.546;13.348;2024-02-26T09:13:40;13.23;;;10.00;;
16522;SDS011;19889;52.546;13.348;2024-02-26T09:16:07;13.20;;;9.30;;
16522;SDS011;19889;52.546;13.348;2024-02-26T09:18:34;14.57;;;9.87;;
16522;SDS011;19889;52.546;13.348;2024-02-26T09:21:03;16.43;;;10.03;;
16522;SDS011;19889;52.546;13.348;2024-02-26T09:23:31;14.17;;;9.97;;
16522;SDS011;19889;52.546;13.348;2024-02-26T09:26:00;14.43;;;10.10;;
16522;SDS011;19889;52.546;13.348;2024-02-26T09:28:27;16.50;;;12.37;;
16522;SDS011;19889;52.546;13.348;2024-02-26T09:30:58;17.10;;;11.63;;
16522;SDS011;19889;52.546;13.348;2024-02-26T09:33:25;17.63;;;12.13;;
16522;SDS011;19889;52.546;13.348;2024-02-26T09:35:52;14.13;;;11.37;;
16522;SDS011;19889;52.546;13.348;2024-02-26T09:38:20;11.30;;;9.50;;
16522;SDS011;19889;52.546;13.348;2024-02-26T09:40:47;16.97;;;12.47;;
16522;SDS011;19889;52.546;13.348;2024-02-26T09:43:14;17.23;;;12.20;;
16522;SDS011;19889;52.546;13.348;2024-02-26T09:45:47;15.07;;;11.27;;
16522;SDS011;19889;52.546;13.348;2024-02-26T09:48:18;16.87;;;11.37;;
16522;SDS011;19889;52.546;13.348;2024-02-26T09:50:46;20.77;;;12.50;;
16522;SDS011;19889;52.546;13.348;2024-02-26T09:53:13;15.77;;;11.03;;
16522;SDS011;19889;52.546;13.348;2024-02-26T09:55:41;19.63;;;12.53;;
16522;SDS011;19889;52.546;13.348;2024-02-26T09:58:08;23.43;;;13.90;;
16522;SDS011;19889;52.546;13.348;2024-02-26T10:00:43;20.20;;;12.07;;
16522;SDS011;19889;52.546;13.348;2024-02-26T10:03:19;15.70;;;11.07;;
16522;SDS011;19889;52.546;13.348;2024-02-26T10:05:49;15.87;;;11.73;;
16522;SDS011;19889;52.546;13.348;2024-02-26T10:08:20;14.07;;;10.30;;
16522;SDS011;19889;52.546;13.348;2024-02-26T10:10:48;17.53;;;11.10;;
16522;SDS011;19889;52.546;13.348;2024-02-26T10:13:16;16.30;;;10.43;;
16522;SDS011;19889;52.546;13.348;2024-02-26T10:15:45;15.03;;;9.57;;
16522;SDS011;19889;52.546;13.348;2024-02-26T10:18:13;16.50;;;9.63;;
16522;SDS011;19889;52.546;13.348;2024-02-26T10:20:41;12.03;;;8.23;;
16522;SDS011;19889;52.546;13.348;2024-02-26T10:23:08;14.80;;;9.57;;
16522;SDS011;19889;52.546;13.348;2024-02-26T10:25:36;13.63;;;10.10;;
16522;SDS011;19889;52.546;13.348;2024-02-26T10:28:04;14.40;;;10.00;;
16522;SDS011;19889;52.546;13.348;2024-02-26T10:30:31;11.23;;;8.37;;
16522;SDS011;19889;52.546;13.348;2024-02-26T10:33:02;13.90;;;9.27;;
16522;SDS011;19889;52.546;13.348;2024-02-26T10:35:30;10.00;;;7.67;;
16522;SDS011;19889;52.546;13.348;2024-02-26T10:38:00;12.07;;;8.63;;
16522;SDS011;19889;52.546;13.348;2024-02-26T10:40:28;12.10;;;9.07;;
16522;SDS011;19889;52.546;13.348;2024-02-26T10:42:55;11.23;;;7.50;;
16522;SDS011;19889;52.546;13.348;2024-02-26T10:45:25;11.00;;;8.40;;
16522;SDS011;19889;52.546;13.348;2024-02-26T10:47:52;10.73;;;8.07;;
16522;SDS011;19889;52.546;13.348;2024-02-26T10:50:20;12.67;;;8.10;;
16522;SDS011;19889;52.546;13.348;2024-02-26T10:52:48;8.83;;;7.63;;
16522;SDS011;19889;52.546;13.348;2024-02-26T10:55:16;14.00;;;8.60;;
16522;SDS011;19889;52.546;13.348;2024-02-26T10:57:44;10.63;;;7.63;;
16522;SDS011;19889;52.546;13.348;2024-02-26T11:00:13;9.43;;;7.80;;
16522;SDS011;19889;52.546;13.348;2024-02-26T11:02:42;7.93;;;6.13;;
16522;SDS011;19889;52.546;13.348;2024-02-26T11:05:11;8.30;;;6.23;;
16522;SDS011;19889;52.546;13.348;2024-02-26T11:07:39;10.53;;;8.00;;
16522;SDS011;19889;52.546;13.348;2024-02-26T11:10:08;12.37;;;8.67;;
16522;SDS011;19889;52.546;13.348;2024-02-26T11:12:39;11.70;;;8.50;;
16522;SDS011;19889;52.546;13.348;2024-02-26T11:15:08;11.07;;;8.37;;
16522;SDS011;19889;52.546;13.348;2024-02-26T11:17:36;11.53;;;8.20;;
16522;SDS011;19889;52.546;13.348;2024-02-26T11:20:05;10.63;;;7.70;;
16522;SDS011;19889;52.546;13.348;2024-02-26T11:22:38;9.57;;;7.33;;
16522;SDS011;19889;52.546;13.348;2024-02-26T11:25:06;12.70;;;8.57;;
16522;SDS011;19889;52.546;13.348;2024-02-26T11:27:37;10.67;;;7.53;;
16522;SDS011;19889;52.546;13.348;2024-02-26T11:30:09;8.17;;;6.13;;
16522;SDS011;19889;52.546;13.348;2024-02-26T11:32:38;10.37;;;7.67;;
16522;SDS011;19889;52.546;13.348;2024-02-26T11:35:05;8.77;;;7.03;;
16522;SDS011;19889;52.546;13.348;2024-02-26T11:37:35;8.53;;;7.00;;
16522;SDS011;19889;52.546;13.348;2024-02-26T11:40:03;7.67;;;6.87;;
16522;SDS011;19889;52.546;13.348;2024-02-26T11:42:31;6.83;;;6.13;;
16522;SDS011;19889;52.546;13.348;2024-02-26T11:45:01;9.57;;;7.53;;
16522;SDS011;19889;52.546;13.348;2024-02-26T11:47:28;9.63;;;6.43;;
16522;SDS011;19889;52.546;13.348;2024-02-26T11:49:55;9.27;;;7.20;;
16522;SDS011;19889;52.546;13.348;2024-02-26T11:52:22;11.73;;;7.93;;
16522;SDS011;19889;52.546;13.348;2024-02-26T11:54:53;9.57;;;8.03;;
16522;SDS011;19889;52.546;13.348;2024-02-26T11:57:26;14.63;;;10.67;;
16522;SDS011;19889;52.546;13.348;2024-02-26T11:59:54;10.17;;;8.20;;
16522;SDS011;19889;52.546;13.348;2024-02-26T12:02:43;10.97;;;8.03;;
16522;SDS011;19889;52.546;13.348;2024-02-26T12:05:12;10.93;;;7.60;;
16522;SDS011;19889;52.546;13.348;2024-02-26T12:07:44;10.00;;;8.03;;
16522;SDS011;19889;52.546;13.348;2024-02-26T12:10:14;11.27;;;7.77;;
16522;SDS011;19889;52.546;13.348;2024-02-26T12:12:52;15.73;;;11.50;;
16522;SDS011;19889;52.546;13.348;2024-02-26T12:15:23;12.43;;;8.80;;
16522;SDS011;19889;52.546;13.348;2024-02-26T12:17:52;10.37;;;8.17;;
16522;SDS011;19889;52.546;13.348;2024-02-26T12:20:19;8.47;;;7.57;;
16522;SDS011;19889;52.546;13.348;2024-02-26T12:22:46;9.13;;;7.03;;
16522;SDS011;19889;52.546;13.348;2024-02-26T12:25:19;9.97;;;7.13;;
16522;SDS011;19889;52.546;13.348;2024-02-26T12:27:50;9.27;;;7.10;;
16522;SDS011;19889;52.546;13.348;2024-02-26T12:30:17;8.03;;;6.97;;
16522;SDS011;19889;52.546;13.348;2024-02-26T12:32:44;8.73;;;6.87;;
16522;SDS011;19889;52.546;13.348;2024-02-26T12:35:14;6.93;;;5.90;;
16522;SDS011;19889;52.546;13.348;2024-02-26T12:37:42;9.43;;;7.10;;
16522;SDS011;19889;52.546;13.348;2024-02-26T12:40:10;8.70;;;6.50;;
16522;SDS011;19889;52.546;13.348;2024-02-26T12:42:38;9.17;;;7.23;;
16522;SDS011;19889;52.546;13.348;2024-02-26T12:45:06;7.13;;;6.23;;
16522;SDS011;19889;52.546;13.348;2024-02-26T12:47:36;8.43;;;6.67;;
16522;SDS011;19889;52.546;13.348;2024-02-26T12:50:04;7.57;;;5.40;;
16522;SDS011;19889;52.546;13.348;2024-02-26T12:52:35;8.90;;;5.10;;
16522;SDS011;19889;52.546;13.348;2024-02-26T12:55:03;6.47;;;5.17;;
16522;SDS011;19889;52.546;13.348;2024-02-26T12:57:32;9.10;;;6.17;;
16522;SDS011;19889;52.546;13.348;2024-02-26T13:00:00;7.70;;;5.93;;
16522;SDS011;19889;52.546;13.348;2024-02-26T13:02:29;7.30;;;5.30;;
16522;SDS011;19889;52.546;13.348;2024-02-26T13:04:58;5.03;;;4.47;;
16522;SDS011;19889;52.546;13.348;2024-02-26T13:07:26;4.83;;;4.23;;
16522;SDS011;19889;52.546;13.348;2024-02-26T13:09:55;5.43;;;4.47;;
16522;SDS011;19889;52.546;13.348;2024-02-26T13:12:23;7.20;;;4.80;;
16522;SDS011;19889;52.546;13.348;2024-02-26T13:14:58;5.43;;;4.17;;
16522;SDS011;19889;52.546;13.348;2024-02-26T13:17:25;5.03;;;4.53;;
16522;SDS011;19889;52.546;13.348;2024-02-26T13:19:53;7.03;;;5.17;;
16522;SDS011;19889;52.546;13.348;2024-02-26T13:22:21;6.33;;;4.20;;
16522;SDS011;19889;52.546;13.348;2024-02-26T13:24:56;4.90;;;4.10;;
16522;SDS011;19889;52.546;13.348;2024-02-26T13:27:24;4.77;;;4.10;;
16522;SDS011;19889;52.546;13.348;2024-02-26T13:30:01;8.33;;;5.60;;
16522;SDS011;19889;52.546;13.348;2024-02-26T13:32:35;6.83;;;4.67;;
16522;SDS011;19889;52.546;13.348;2024-02-26T13:35:07;4.77;;;3.53;;
16522;SDS011;19889;52.546;13.348;2024-02-26T13:37:35;3.80;;;3.40;;
16522;SDS011;19889;52.546;13.348;2024-02-26T13:40:08;3.23;;;2.90;;
16522;SDS011;19889;52.546;13.348;2024-02-26T13:42:36;4.70;;;3.47;;
16522;SDS011;19889;52.546;13.348;2024-02-26T13:45:04;4.20;;;3.07;;
16522;SDS011;19889;52.546;13.348;2024-02-26T13:47:32;3.87;;;3.10;;
16522;SDS011;19889;52.546;13.348;2024-02-26T13:50:00;3.87;;;3.13;;
16522;SDS011;19889;52.546;13.348;2024-02-26T13:52:27;6.43;;;4.43;;
16522;SDS011;19889;52.546;13.348;2024-02-26T13:54:57;4.87;;;3.77;;
16522;SDS011;19889;52.546;13.348;2024-02-26T13:57:26;3.97;;;3.30;;
16522;SDS011;19889;52.546;13.348;2024-02-26T13:59:54;4.20;;;3.27;;
16522;SDS011;19889;52.546;13.348;2024-02-26T14:02:21;3.73;;;3.43;;
16522;SDS011;19889;52.546;13.348;2024-02-26T14:04:48;3.27;;;2.97;;
16522;SDS011;19889;52.546;13.348;2024-02-26T14:07:16;4.57;;;3.27;;
16522;SDS011;19889;52.546;13.348;2024-02-26T14:09:43;3.93;;;3.03;;
16522;SDS011;19889;52.546;13.348;2024-02-26T14:12:11;3.70;;;2.97;;
16522;SDS011;19889;52.546;13.348;2024-02-26T14:14:39;6.07;;;3.30;;
16522;SDS011;19889;52.546;13.348;2024-02-26T14:17:07;5.23;;;3.87;;
16522;SDS011;19889;52.546;13.348;2024-02-26T14:19:35;5.97;;;4.30;;
16522;SDS011;19889;52.546;13.348;2024-02-26T14:22:04;11.57;;;8.27;;
16522;SDS011;19889;52.546;13.348;2024-02-26T14:24:32;7.43;;;5.63;;
16522;SDS011;19889;52.546;13.348;2024-02-26T14:26:59;6.93;;;4.83;;
16522;SDS011;19889;52.546;13.348;2024-02-26T14:29:26;5.53;;;4.60;;
16522;SDS011;19889;52.546;13.348;2024-02-26T14:31:55;5.67;;;4.57;;